sensor_id;sensor_type;location;lat;lon;timestamp;temperature;humidity
13721;DHT22;6932;51.438;5.470;2023-08-31T00:02:17;17.20;99.90
13721;DHT22;6932;51.438;5.470;2023-08-31T00:04:44;17.10;99.90
13721;DHT22;6932;51.438;5.470;2023-08-31T00:07:10;17.10;99.90
13721;DHT22;6932;51.438;5.470;2023-08-31T00:09:36;17.10;99.90
13721;DHT22;6932;51.438;5.470;2023-08-31T00:12:02;17.10;99.90
13721;DHT22;6932;51.438;5.470;2023-08-31T00:14:29;17.10;99.90
13721;DHT22;6932;51.438;5.470;2023-08-31T00:16:54;17.10;99.90
13721;DHT22;6932;51.438;5.470;2023-08-31T00:19:23;17.10;99.90
13721;DHT22;6932;51.438;5.470;2023-08-31T00:21:48;17.00;99.90
13721;DHT22;6932;51.438;5.470;2023-08-31T00:24:14;17.00;99.90
13721;DHT22;6932;51.438;5.470;2023-08-31T00:26:40;17.00;99.90
13721;DHT22;6932;51.438;5.470;2023-08-31T00:29:09;16.90;99.90
13721;DHT22;6932;51.438;5.470;2023-08-31T00:31:41;16.90;99.90
13721;DHT22;6932;51.438;5.470;2023-08-31T00:34:10;16.90;99.90
13721;DHT22;6932;51.438;5.470;2023-08-31T00:36:37;16.90;99.90
13721;DHT22;6932;51.438;5.470;2023-08-31T00:39:06;16.90;99.90
13721;DHT22;6932;51.438;5.470;2023-08-31T00:41:36;16.90;99.90
13721;DHT22;6932;51.438;5.470;2023-08-31T00:44:03;16.80;99.90
13721;DHT22;6932;51.438;5.470;2023-08-31T00:46:32;16.80;99.90
13721;DHT22;6932;51.438;5.470;2023-08-31T00:49:00;16.80;99.90
13721;DHT22;6932;51.438;5.470;2023-08-31T00:51:26;16.80;99.90
13721;DHT22;6932;51.438;5.470;2023-08-31T00:53:52;16.80;99.90
13721;DHT22;6932;51.438;5.470;2023-08-31T00:56:21;16.70;99.90
13721;DHT22;6932;51.438;5.470;2023-08-31T00:58:47;16.70;99.90
13721;DHT22;6932;51.438;5.470;2023-08-31T01:01:25;16.70;99.90
13721;DHT22;6932;51.438;5.470;2023-08-31T01:04:28;16.70;99.90
13721;DHT22;6932;51.438;5.470;2023-08-31T01:10:34;16.60;99.90
13721;DHT22;6932;51.438;5.470;2023-08-31T01:13:11;16.60;99.90
13721;DHT22;6932;51.438;5.470;2023-08-31T01:15:42;16.60;99.90
13721;DHT22;6932;51.438;5.470;2023-08-31T01:18:14;16.60;99.90
13721;DHT22;6932;51.438;5.470;2023-08-31T01:20:46;16.50;99.90
13721;DHT22;6932;51.438;5.470;2023-08-31T01:23:21;16.50;99.90
13721;DHT22;6932;51.438;5.470;2023-08-31T01:25:57;16.50;99.90
13721;DHT22;6932;51.438;5.470;2023-08-31T01:28:23;16.50;99.90
13721;DHT22;6932;51.438;5.470;2023-08-31T01:30:49;16.50;99.90
13721;DHT22;6932;51.438;5.470;2023-08-31T01:33:15;16.40;99.90
13721;DHT22;6932;51.438;5.470;2023-08-31T01:35:44;16.40;99.90
13721;DHT22;6932;51.438;5.470;2023-08-31T01:38:16;16.40;99.90
13721;DHT22;6932;51.438;5.470;2023-08-31T01:40:55;16.40;99.90
13721;DHT22;6932;51.438;5.470;2023-08-31T01:43:28;16.40;99.90
13721;DHT22;6932;51.438;5.470;2023-08-31T01:45:58;16.40;99.90
13721;DHT22;6932;51.438;5.470;2023-08-31T01:48:24;16.40;99.90
13721;DHT22;6932;51.438;5.470;2023-08-31T01:50:49;16.30;99.90
13721;DHT22;6932;51.438;5.470;2023-08-31T01:53:15;16.30;99.90
13721;DHT22;6932;51.438;5.470;2023-08-31T01:55:41;16.30;99.90
13721;DHT22;6932;51.438;5.470;2023-08-31T01:58:06;16.30;99.90
13721;DHT22;6932;51.438;5.470;2023-08-31T02:00:32;16.30;99.90
13721;DHT22;6932;51.438;5.470;2023-08-31T02:03:04;16.30;99.90
13721;DHT22;6932;51.438;5.470;2023-08-31T02:05:30;16.30;99.90
13721;DHT22;6932;51.438;5.470;2023-08-31T02:07:55;16.30;99.90
13721;DHT22;6932;51.438;5.470;2023-08-31T02:10:21;16.30;99.90
13721;DHT22;6932;51.438;5.470;2023-08-31T02:12:47;16.30;99.90
13721;DHT22;6932;51.438;5.470;2023-08-31T02:15:13;16.30;99.90
13721;DHT22;6932;51.438;5.470;2023-08-31T02:17:39;16.30;99.90
13721;DHT22;6932;51.438;5.470;2023-08-31T02:20:06;16.30;99.90
13721;DHT22;6932;51.438;5.470;2023-08-31T02:22:34;16.30;99.90
13721;DHT22;6932;51.438;5.470;2023-08-31T02:25:00;16.30;99.90
13721;DHT22;6932;51.438;5.470;2023-08-31T02:27:26;16.30;99.90
13721;DHT22;6932;51.438;5.470;2023-08-31T02:29:52;16.30;99.90
13721;DHT22;6932;51.438;5.470;2023-08-31T02:32:19;16.30;99.90
13721;DHT22;6932;51.438;5.470;2023-08-31T02:34:45;16.30;99.90
13721;DHT22;6932;51.438;5.470;2023-08-31T02:37:11;16.30;99.90
13721;DHT22;6932;51.438;5.470;2023-08-31T02:39:36;16.30;99.90
13721;DHT22;6932;51.438;5.470;2023-08-31T02:42:02;16.30;99.90
13721;DHT22;6932;51.438;5.470;2023-08-31T02:44:30;16.30;99.90
13721;DHT22;6932;51.438;5.470;2023-08-31T02:46:57;16.30;99.90
13721;DHT22;6932;51.438;5.470;2023-08-31T02:49:22;16.30;99.90
13721;DHT22;6932;51.438;5.470;2023-08-31T02:51:48;16.30;99.90
13721;DHT22;6932;51.438;5.470;2023-08-31T02:54:15;16.30;99.90
13721;DHT22;6932;51.438;5.470;2023-08-31T02:56:41;16.30;99.90
13721;DHT22;6932;51.438;5.470;2023-08-31T02:59:07;16.30;99.90
13721;DHT22;6932;51.438;5.470;2023-08-31T03:01:33;16.30;99.90
13721;DHT22;6932;51.438;5.470;2023-08-31T03:03:59;16.30;99.90
13721;DHT22;6932;51.438;5.470;2023-08-31T03:06:26;16.30;99.90
13721;DHT22;6932;51.438;5.470;2023-08-31T03:08:51;16.30;99.90
13721;DHT22;6932;51.438;5.470;2023-08-31T03:11:17;16.30;99.90
13721;DHT22;6932;51.438;5.470;2023-08-31T03:13:43;16.30;99.90
13721;DHT22;6932;51.438;5.470;2023-08-31T03:16:09;16.30;99.90
13721;DHT22;6932;51.438;5.470;2023-08-31T03:18:34;16.20;99.90
13721;DHT22;6932;51.438;5.470;2023-08-31T03:21:00;16.20;99.90
13721;DHT22;6932;51.438;5.470;2023-08-31T03:23:27;16.20;99.90
13721;DHT22;6932;51.438;5.470;2023-08-31T03:25:54;16.20;99.90
13721;DHT22;6932;51.438;5.470;2023-08-31T03:28:20;16.20;99.90
13721;DHT22;6932;51.438;5.470;2023-08-31T03:30:53;16.20;99.90
13721;DHT22;6932;51.438;5.470;2023-08-31T03:33:22;16.20;99.90
13721;DHT22;6932;51.438;5.470;2023-08-31T03:35:48;16.10;99.90
13721;DHT22;6932;51.438;5.470;2023-08-31T03:38:14;16.10;99.90
13721;DHT22;6932;51.438;5.470;2023-08-31T03:40:40;16.10;99.90
13721;DHT22;6932;51.438;5.470;2023-08-31T03:43:06;16.10;99.90
13721;DHT22;6932;51.438;5.470;2023-08-31T03:45:32;16.10;99.90
13721;DHT22;6932;51.438;5.470;2023-08-31T03:47:58;16.10;99.90
13721;DHT22;6932;51.438;5.470;2023-08-31T03:50:24;16.10;99.90
13721;DHT22;6932;51.438;5.470;2023-08-31T03:52:50;16.10;99.90
13721;DHT22;6932;51.438;5.470;2023-08-31T03:55:15;16.10;99.90
13721;DHT22;6932;51.438;5.470;2023-08-31T03:57:41;16.10;99.90
13721;DHT22;6932;51.438;5.470;2023-08-31T04:00:07;16.10;99.90
13721;DHT22;6932;51.438;5.470;2023-08-31T04:02:38;16.10;99.90
13721;DHT22;6932;51.438;5.470;2023-08-31T04:05:04;16.10;99.90
13721;DHT22;6932;51.438;5.470;2023-08-31T04:07:32;16.10;99.90
13721;DHT22;6932;51.438;5.470;2023-08-31T04:09:59;16.10;99.90
13721;DHT22;6932;51.438;5.470;2023-08-31T04:12:25;16.10;99.90
13721;DHT22;6932;51.438;5.470;2023-08-31T04:14:51;16.00;99.90
13721;DHT22;6932;51.438;5.470;2023-08-31T04:17:16;16.00;99.90
13721;DHT22;6932;51.438;5.470;2023-08-31T04:19:42;16.10;99.90
13721;DHT22;6932;51.438;5.470;2023-08-31T04:22:08;16.00;99.90
13721;DHT22;6932;51.438;5.470;2023-08-31T04:24:33;16.00;99.90
13721;DHT22;6932;51.438;5.470;2023-08-31T04:26:59;16.00;99.90
13721;DHT22;6932;51.438;5.470;2023-08-31T04:29:25;16.00;99.90
13721;DHT22;6932;51.438;5.470;2023-08-31T04:31:51;16.00;99.90
13721;DHT22;6932;51.438;5.470;2023-08-31T04:34:16;16.00;99.90
13721;DHT22;6932;51.438;5.470;2023-08-31T04:36:42;16.00;99.90
13721;DHT22;6932;51.438;5.470;2023-08-31T04:39:08;16.00;99.90
13721;DHT22;6932;51.438;5.470;2023-08-31T04:41:33;16.00;99.90
13721;DHT22;6932;51.438;5.470;2023-08-31T04:43:59;15.90;99.90
13721;DHT22;6932;51.438;5.470;2023-08-31T04:46:25;16.00;99.90
13721;DHT22;6932;51.438;5.470;2023-08-31T04:48:51;16.00;99.90
13721;DHT22;6932;51.438;5.470;2023-08-31T04:51:30;15.90;99.90
13721;DHT22;6932;51.438;5.470;2023-08-31T04:53:58;16.00;99.90
13721;DHT22;6932;51.438;5.470;2023-08-31T04:56:24;16.00;99.90
13721;DHT22;6932;51.438;5.470;2023-08-31T04:58:50;16.00;99.90
13721;DHT22;6932;51.438;5.470;2023-08-31T05:01:16;16.00;99.90
13721;DHT22;6932;51.438;5.470;2023-08-31T05:03:42;15.90;99.90
13721;DHT22;6932;51.438;5.470;2023-08-31T05:06:07;15.90;99.90
13721;DHT22;6932;51.438;5.470;2023-08-31T05:08:33;16.00;99.90
13721;DHT22;6932;51.438;5.470;2023-08-31T05:10:59;16.00;99.90
13721;DHT22;6932;51.438;5.470;2023-08-31T05:13:25;16.00;99.90
13721;DHT22;6932;51.438;5.470;2023-08-31T05:15:50;16.00;99.90
13721;DHT22;6932;51.438;5.470;2023-08-31T05:18:16;16.00;99.90
13721;DHT22;6932;51.438;5.470;2023-08-31T05:20:45;16.00;99.90
13721;DHT22;6932;51.438;5.470;2023-08-31T05:23:14;16.10;99.90
13721;DHT22;6932;51.438;5.470;2023-08-31T05:25:43;16.10;99.90
13721;DHT22;6932;51.438;5.470;2023-08-31T05:28:10;16.20;99.90
13721;DHT22;6932;51.438;5.470;2023-08-31T05:30:36;16.20;99.90
13721;DHT22;6932;51.438;5.470;2023-08-31T05:33:02;16.30;99.90
13721;DHT22;6932;51.438;5.470;2023-08-31T05:35:29;16.40;99.90
13721;DHT22;6932;51.438;5.470;2023-08-31T05:37:56;16.40;99.90
13721;DHT22;6932;51.438;5.470;2023-08-31T05:40:22;16.50;99.90
13721;DHT22;6932;51.438;5.470;2023-08-31T05:42:47;16.50;99.90
13721;DHT22;6932;51.438;5.470;2023-08-31T05:45:13;16.50;99.90
13721;DHT22;6932;51.438;5.470;2023-08-31T05:47:41;16.60;99.90
13721;DHT22;6932;51.438;5.470;2023-08-31T05:50:07;16.60;99.90
13721;DHT22;6932;51.438;5.470;2023-08-31T05:52:33;16.70;99.90
13721;DHT22;6932;51.438;5.470;2023-08-31T05:54:58;16.80;99.90
13721;DHT22;6932;51.438;5.470;2023-08-31T05:57:26;17.00;99.90
13721;DHT22;6932;51.438;5.470;2023-08-31T05:59:53;17.10;99.90
13721;DHT22;6932;51.438;5.470;2023-08-31T06:02:19;17.30;99.90
13721;DHT22;6932;51.438;5.470;2023-08-31T06:04:44;17.40;99.90
13721;DHT22;6932;51.438;5.470;2023-08-31T06:07:10;17.60;99.90
13721;DHT22;6932;51.438;5.470;2023-08-31T06:09:36;17.70;99.90
13721;DHT22;6932;51.438;5.470;2023-08-31T06:12:04;17.90;99.90
13721;DHT22;6932;51.438;5.470;2023-08-31T06:14:30;18.00;99.90
13721;DHT22;6932;51.438;5.470;2023-08-31T06:16:56;18.20;99.90
13721;DHT22;6932;51.438;5.470;2023-08-31T06:19:21;18.40;99.90
13721;DHT22;6932;51.438;5.470;2023-08-31T06:21:47;18.50;99.90
13721;DHT22;6932;51.438;5.470;2023-08-31T06:24:13;18.60;99.90
13721;DHT22;6932;51.438;5.470;2023-08-31T06:26:39;18.80;99.90
13721;DHT22;6932;51.438;5.470;2023-08-31T06:29:05;18.90;99.90
13721;DHT22;6932;51.438;5.470;2023-08-31T06:31:33;19.00;99.90
13721;DHT22;6932;51.438;5.470;2023-08-31T06:33:59;19.10;99.90
13721;DHT22;6932;51.438;5.470;2023-08-31T06:36:25;19.20;99.90
13721;DHT22;6932;51.438;5.470;2023-08-31T06:38:51;19.20;99.90
13721;DHT22;6932;51.438;5.470;2023-08-31T06:41:16;19.20;99.90
13721;DHT22;6932;51.438;5.470;2023-08-31T06:43:42;19.30;99.90
13721;DHT22;6932;51.438;5.470;2023-08-31T06:46:08;19.40;99.90
13721;DHT22;6932;51.438;5.470;2023-08-31T06:48:33;19.40;99.90
13721;DHT22;6932;51.438;5.470;2023-08-31T06:50:59;19.50;99.90
13721;DHT22;6932;51.438;5.470;2023-08-31T06:53:25;19.60;99.90
13721;DHT22;6932;51.438;5.470;2023-08-31T06:55:51;19.70;99.90
13721;DHT22;6932;51.438;5.470;2023-08-31T06:58:17;19.80;99.90
13721;DHT22;6932;51.438;5.470;2023-08-31T07:00:43;19.90;99.90
13721;DHT22;6932;51.438;5.470;2023-08-31T07:03:08;19.90;99.90
13721;DHT22;6932;51.438;5.470;2023-08-31T07:05:34;20.10;99.90
13721;DHT22;6932;51.438;5.470;2023-08-31T07:08:06;20.20;99.90
13721;DHT22;6932;51.438;5.470;2023-08-31T07:10:33;20.30;99.90
13721;DHT22;6932;51.438;5.470;2023-08-31T07:13:02;20.50;99.90
13721;DHT22;6932;51.438;5.470;2023-08-31T07:15:29;20.60;99.90
13721;DHT22;6932;51.438;5.470;2023-08-31T07:17:55;20.80;99.90
13721;DHT22;6932;51.438;5.470;2023-08-31T07:20:21;20.90;99.90
13721;DHT22;6932;51.438;5.470;2023-08-31T07:22:46;21.10;99.90
13721;DHT22;6932;51.438;5.470;2023-08-31T07:25:12;21.20;99.90
13721;DHT22;6932;51.438;5.470;2023-08-31T07:27:38;21.30;99.90
13721;DHT22;6932;51.438;5.470;2023-08-31T07:30:05;21.50;99.90
13721;DHT22;6932;51.438;5.470;2023-08-31T07:32:31;21.60;99.90
13721;DHT22;6932;51.438;5.470;2023-08-31T07:34:57;21.60;99.90
13721;DHT22;6932;51.438;5.470;2023-08-31T07:37:23;21.70;99.90
13721;DHT22;6932;51.438;5.470;2023-08-31T07:39:49;21.80;99.90
13721;DHT22;6932;51.438;5.470;2023-08-31T07:42:15;21.90;99.90
13721;DHT22;6932;51.438;5.470;2023-08-31T07:44:40;22.00;99.90
13721;DHT22;6932;51.438;5.470;2023-08-31T07:47:07;22.10;99.90
13721;DHT22;6932;51.438;5.470;2023-08-31T07:49:33;22.10;99.90
13721;DHT22;6932;51.438;5.470;2023-08-31T07:51:59;22.20;99.90
13721;DHT22;6932;51.438;5.470;2023-08-31T07:54:25;22.40;99.90
13721;DHT22;6932;51.438;5.470;2023-08-31T07:56:51;22.50;99.90
13721;DHT22;6932;51.438;5.470;2023-08-31T07:59:17;22.60;99.90
13721;DHT22;6932;51.438;5.470;2023-08-31T08:01:44;22.70;99.90
13721;DHT22;6932;51.438;5.470;2023-08-31T08:04:11;22.80;99.90
13721;DHT22;6932;51.438;5.470;2023-08-31T08:06:37;22.80;99.90
13721;DHT22;6932;51.438;5.470;2023-08-31T08:09:03;23.00;99.90
13721;DHT22;6932;51.438;5.470;2023-08-31T08:11:30;23.00;99.90
13721;DHT22;6932;51.438;5.470;2023-08-31T08:13:56;23.20;99.90
13721;DHT22;6932;51.438;5.470;2023-08-31T08:16:22;23.30;99.90
13721;DHT22;6932;51.438;5.470;2023-08-31T08:18:49;23.50;99.90
13721;DHT22;6932;51.438;5.470;2023-08-31T08:21:15;23.60;99.90
13721;DHT22;6932;51.438;5.470;2023-08-31T08:23:41;23.60;99.90
13721;DHT22;6932;51.438;5.470;2023-08-31T08:26:06;23.80;99.90
13721;DHT22;6932;51.438;5.470;2023-08-31T08:28:33;23.80;99.90
13721;DHT22;6932;51.438;5.470;2023-08-31T08:31:02;23.80;99.90
13721;DHT22;6932;51.438;5.470;2023-08-31T08:33:31;23.90;99.90
13721;DHT22;6932;51.438;5.470;2023-08-31T08:35:57;24.00;99.90
13721;DHT22;6932;51.438;5.470;2023-08-31T08:38:23;24.10;99.90
13721;DHT22;6932;51.438;5.470;2023-08-31T08:40:49;24.30;99.90
13721;DHT22;6932;51.438;5.470;2023-08-31T08:43:14;24.30;99.90
13721;DHT22;6932;51.438;5.470;2023-08-31T08:45:42;24.40;99.90
13721;DHT22;6932;51.438;5.470;2023-08-31T08:48:12;24.50;99.90
13721;DHT22;6932;51.438;5.470;2023-08-31T08:50:40;24.50;99.90
13721;DHT22;6932;51.438;5.470;2023-08-31T08:53:06;24.50;99.90
13721;DHT22;6932;51.438;5.470;2023-08-31T08:55:32;24.50;99.90
13721;DHT22;6932;51.438;5.470;2023-08-31T08:57:59;24.40;99.90
13721;DHT22;6932;51.438;5.470;2023-08-31T09:00:26;24.30;99.90
13721;DHT22;6932;51.438;5.470;2023-08-31T09:02:53;24.30;99.90
13721;DHT22;6932;51.438;5.470;2023-08-31T09:05:19;24.10;99.90
13721;DHT22;6932;51.438;5.470;2023-08-31T09:10:34;24.00;99.90
13721;DHT22;6932;51.438;5.470;2023-08-31T09:13:04;24.00;99.90
13721;DHT22;6932;51.438;5.470;2023-08-31T09:15:44;24.10;99.90
13721;DHT22;6932;51.438;5.470;2023-08-31T09:20:47;24.10;99.90
13721;DHT22;6932;51.438;5.470;2023-08-31T09:23:14;24.10;99.90
13721;DHT22;6932;51.438;5.470;2023-08-31T09:25:48;24.10;99.90
13721;DHT22;6932;51.438;5.470;2023-08-31T09:28:20;24.20;99.90
13721;DHT22;6932;51.438;5.470;2023-08-31T09:30:48;24.30;99.90
13721;DHT22;6932;51.438;5.470;2023-08-31T09:33:16;24.30;99.90
13721;DHT22;6932;51.438;5.470;2023-08-31T09:35:50;24.40;99.90
13721;DHT22;6932;51.438;5.470;2023-08-31T09:38:21;24.40;99.90
13721;DHT22;6932;51.438;5.470;2023-08-31T09:40:47;24.40;99.90
13721;DHT22;6932;51.438;5.470;2023-08-31T09:43:19;24.40;99.90
13721;DHT22;6932;51.438;5.470;2023-08-31T09:45:48;24.40;99.90
13721;DHT22;6932;51.438;5.470;2023-08-31T09:48:16;24.40;99.90
13721;DHT22;6932;51.438;5.470;2023-08-31T09:50:44;24.40;99.70
13721;DHT22;6932;51.438;5.470;2023-08-31T09:53:16;24.40;99.60
13721;DHT22;6932;51.438;5.470;2023-08-31T09:55:46;24.40;99.10
13721;DHT22;6932;51.438;5.470;2023-08-31T09:58:19;24.50;99.30
13721;DHT22;6932;51.438;5.470;2023-08-31T10:00:51;24.60;99.10
13721;DHT22;6932;51.438;5.470;2023-08-31T10:03:18;24.60;98.40
13721;DHT22;6932;51.438;5.470;2023-08-31T10:05:48;24.70;98.20
13721;DHT22;6932;51.438;5.470;2023-08-31T10:08:15;24.70;98.20
13721;DHT22;6932;51.438;5.470;2023-08-31T10:10:42;24.80;98.10
13721;DHT22;6932;51.438;5.470;2023-08-31T10:13:09;24.90;98.00
13721;DHT22;6932;51.438;5.470;2023-08-31T10:15:36;25.00;97.70
13721;DHT22;6932;51.438;5.470;2023-08-31T10:18:04;25.10;97.20
13721;DHT22;6932;51.438;5.470;2023-08-31T10:20:32;25.20;97.30
13721;DHT22;6932;51.438;5.470;2023-08-31T10:22:59;25.20;97.00
13721;DHT22;6932;51.438;5.470;2023-08-31T10:25:59;25.20;97.40
13721;DHT22;6932;51.438;5.470;2023-08-31T10:28:27;25.20;97.10
13721;DHT22;6932;51.438;5.470;2023-08-31T10:31:06;25.20;96.30
13721;DHT22;6932;51.438;5.470;2023-08-31T10:33:46;25.20;95.50
13721;DHT22;6932;51.438;5.470;2023-08-31T10:36:20;25.20;96.40
13721;DHT22;6932;51.438;5.470;2023-08-31T10:39:37;25.20;95.60
13721;DHT22;6932;51.438;5.470;2023-08-31T10:42:03;25.30;95.40
13721;DHT22;6932;51.438;5.470;2023-08-31T10:44:32;25.40;94.60
13721;DHT22;6932;51.438;5.470;2023-08-31T10:47:03;25.50;94.60
13721;DHT22;6932;51.438;5.470;2023-08-31T10:49:30;25.50;94.20
13721;DHT22;6932;51.438;5.470;2023-08-31T10:52:15;25.50;94.00
13721;DHT22;6932;51.438;5.470;2023-08-31T10:54:46;25.60;93.60
13721;DHT22;6932;51.438;5.470;2023-08-31T10:57:13;25.50;93.70
13721;DHT22;6932;51.438;5.470;2023-08-31T10:59:46;25.60;93.80
13721;DHT22;6932;51.438;5.470;2023-08-31T11:02:30;25.60;93.80
13721;DHT22;6932;51.438;5.470;2023-08-31T11:07:39;25.60;93.70
13721;DHT22;6932;51.438;5.470;2023-08-31T11:10:32;25.60;93.40
13721;DHT22;6932;51.438;5.470;2023-08-31T11:12:58;25.70;93.20
13721;DHT22;6932;51.438;5.470;2023-08-31T11:15:25;25.70;93.30
13721;DHT22;6932;51.438;5.470;2023-08-31T11:17:53;25.80;92.60
13721;DHT22;6932;51.438;5.470;2023-08-31T11:20:21;25.80;92.90
13721;DHT22;6932;51.438;5.470;2023-08-31T11:22:50;25.80;92.40
13721;DHT22;6932;51.438;5.470;2023-08-31T11:25:18;25.80;92.60
13721;DHT22;6932;51.438;5.470;2023-08-31T11:27:56;25.70;92.90
13721;DHT22;6932;51.438;5.470;2023-08-31T11:30:28;25.60;93.40
13721;DHT22;6932;51.438;5.470;2023-08-31T11:35:36;25.40;92.80
13721;DHT22;6932;51.438;5.470;2023-08-31T11:38:03;25.30;92.60
13721;DHT22;6932;51.438;5.470;2023-08-31T11:40:30;25.10;93.20
13721;DHT22;6932;51.438;5.470;2023-08-31T11:42:57;25.00;93.40
13721;DHT22;6932;51.438;5.470;2023-08-31T11:45:25;25.00;93.20
13721;DHT22;6932;51.438;5.470;2023-08-31T11:47:53;24.90;93.60
13721;DHT22;6932;51.438;5.470;2023-08-31T11:50:20;25.00;93.20
13721;DHT22;6932;51.438;5.470;2023-08-31T11:52:48;25.00;93.20
13721;DHT22;6932;51.438;5.470;2023-08-31T11:55:15;25.10;93.60
13721;DHT22;6932;51.438;5.470;2023-08-31T11:57:53;25.20;93.60
13721;DHT22;6932;51.438;5.470;2023-08-31T12:00:21;25.30;93.00
13721;DHT22;6932;51.438;5.470;2023-08-31T12:03:00;25.40;93.00
13721;DHT22;6932;51.438;5.470;2023-08-31T12:05:27;25.50;92.70
13721;DHT22;6932;51.438;5.470;2023-08-31T12:07:57;25.50;93.00
13721;DHT22;6932;51.438;5.470;2023-08-31T12:10:26;25.50;93.10
13721;DHT22;6932;51.438;5.470;2023-08-31T12:12:52;25.60;92.70
13721;DHT22;6932;51.438;5.470;2023-08-31T12:15:20;25.60;92.10
13721;DHT22;6932;51.438;5.470;2023-08-31T12:17:48;25.60;92.20
13721;DHT22;6932;51.438;5.470;2023-08-31T12:20:24;25.60;92.20
13721;DHT22;6932;51.438;5.470;2023-08-31T12:22:52;25.60;91.90
13721;DHT22;6932;51.438;5.470;2023-08-31T12:25:21;25.60;91.60
13721;DHT22;6932;51.438;5.470;2023-08-31T12:27:47;25.60;91.60
13721;DHT22;6932;51.438;5.470;2023-08-31T12:30:13;25.50;91.50
13721;DHT22;6932;51.438;5.470;2023-08-31T12:32:39;25.30;91.30
13721;DHT22;6932;51.438;5.470;2023-08-31T12:35:05;25.30;91.50
13721;DHT22;6932;51.438;5.470;2023-08-31T12:37:32;25.20;91.60
13721;DHT22;6932;51.438;5.470;2023-08-31T12:39:58;25.20;92.00
13721;DHT22;6932;51.438;5.470;2023-08-31T12:42:23;25.10;91.70
13721;DHT22;6932;51.438;5.470;2023-08-31T12:44:49;25.00;91.80
13721;DHT22;6932;51.438;5.470;2023-08-31T12:47:15;24.90;92.30
13721;DHT22;6932;51.438;5.470;2023-08-31T12:49:41;24.90;92.60
13721;DHT22;6932;51.438;5.470;2023-08-31T12:52:07;24.80;96.30
13721;DHT22;6932;51.438;5.470;2023-08-31T12:54:32;24.70;97.10
13721;DHT22;6932;51.438;5.470;2023-08-31T12:56:58;24.50;97.60
13721;DHT22;6932;51.438;5.470;2023-08-31T12:59:24;24.30;98.00
13721;DHT22;6932;51.438;5.470;2023-08-31T13:01:49;24.10;98.20
13721;DHT22;6932;51.438;5.470;2023-08-31T13:04:15;23.80;98.80
13721;DHT22;6932;51.438;5.470;2023-08-31T13:06:41;23.60;99.50
13721;DHT22;6932;51.438;5.470;2023-08-31T13:09:06;23.40;99.90
13721;DHT22;6932;51.438;5.470;2023-08-31T13:11:34;23.10;99.90
13721;DHT22;6932;51.438;5.470;2023-08-31T13:14:00;23.00;99.90
13721;DHT22;6932;51.438;5.470;2023-08-31T13:16:25;22.80;99.90
13721;DHT22;6932;51.438;5.470;2023-08-31T13:18:52;22.60;99.90
13721;DHT22;6932;51.438;5.470;2023-08-31T13:21:17;22.50;99.90
13721;DHT22;6932;51.438;5.470;2023-08-31T13:23:43;22.30;99.90
13721;DHT22;6932;51.438;5.470;2023-08-31T13:26:10;22.20;99.90
13721;DHT22;6932;51.438;5.470;2023-08-31T13:28:35;22.00;99.90
13721;DHT22;6932;51.438;5.470;2023-08-31T13:31:02;21.90;99.90
13721;DHT22;6932;51.438;5.470;2023-08-31T13:33:28;21.70;99.90
13721;DHT22;6932;51.438;5.470;2023-08-31T13:35:57;21.60;99.90
13721;DHT22;6932;51.438;5.470;2023-08-31T13:38:24;21.50;99.90
13721;DHT22;6932;51.438;5.470;2023-08-31T13:40:57;21.40;99.90
13721;DHT22;6932;51.438;5.470;2023-08-31T13:43:23;21.40;99.90
13721;DHT22;6932;51.438;5.470;2023-08-31T13:45:49;21.40;99.90
13721;DHT22;6932;51.438;5.470;2023-08-31T13:48:15;21.40;99.90
13721;DHT22;6932;51.438;5.470;2023-08-31T13:50:40;21.40;99.90
13721;DHT22;6932;51.438;5.470;2023-08-31T13:53:06;21.40;99.90
13721;DHT22;6932;51.438;5.470;2023-08-31T13:55:32;21.40;99.90
13721;DHT22;6932;51.438;5.470;2023-08-31T13:58:06;21.50;99.90
13721;DHT22;6932;51.438;5.470;2023-08-31T14:00:34;21.50;99.90
13721;DHT22;6932;51.438;5.470;2023-08-31T14:03:01;21.60;99.90
13721;DHT22;6932;51.438;5.470;2023-08-31T14:05:30;21.70;99.90
13721;DHT22;6932;51.438;5.470;2023-08-31T14:07:56;21.70;99.90
13721;DHT22;6932;51.438;5.470;2023-08-31T14:10:24;21.80;99.90
13721;DHT22;6932;51.438;5.470;2023-08-31T14:12:50;21.80;99.90
13721;DHT22;6932;51.438;5.470;2023-08-31T14:15:16;21.90;99.90
13721;DHT22;6932;51.438;5.470;2023-08-31T14:17:42;21.90;99.90
13721;DHT22;6932;51.438;5.470;2023-08-31T14:20:08;22.00;99.90
13721;DHT22;6932;51.438;5.470;2023-08-31T14:22:35;22.00;99.90
13721;DHT22;6932;51.438;5.470;2023-08-31T14:25:01;22.00;99.90
13721;DHT22;6932;51.438;5.470;2023-08-31T14:27:28;22.00;99.90
13721;DHT22;6932;51.438;5.470;2023-08-31T14:29:56;22.10;99.90
13721;DHT22;6932;51.438;5.470;2023-08-31T14:32:23;22.20;99.90
13721;DHT22;6932;51.438;5.470;2023-08-31T14:34:49;22.20;99.90
13721;DHT22;6932;51.438;5.470;2023-08-31T14:37:14;22.20;99.90
13721;DHT22;6932;51.438;5.470;2023-08-31T14:39:40;22.30;99.90
13721;DHT22;6932;51.438;5.470;2023-08-31T14:42:06;22.30;99.90
13721;DHT22;6932;51.438;5.470;2023-08-31T14:44:32;22.40;99.90
13721;DHT22;6932;51.438;5.470;2023-08-31T14:46:58;22.50;99.90
13721;DHT22;6932;51.438;5.470;2023-08-31T14:49:24;22.50;99.90
13721;DHT22;6932;51.438;5.470;2023-08-31T14:51:53;22.50;99.90
13721;DHT22;6932;51.438;5.470;2023-08-31T14:54:18;22.50;99.90
13721;DHT22;6932;51.438;5.470;2023-08-31T14:56:44;22.60;99.90
13721;DHT22;6932;51.438;5.470;2023-08-31T14:59:10;22.60;99.90
13721;DHT22;6932;51.438;5.470;2023-08-31T15:01:36;22.60;99.90
13721;DHT22;6932;51.438;5.470;2023-08-31T15:04:01;22.60;99.90
13721;DHT22;6932;51.438;5.470;2023-08-31T15:06:28;22.60;99.90
13721;DHT22;6932;51.438;5.470;2023-08-31T15:08:57;22.70;99.90
13721;DHT22;6932;51.438;5.470;2023-08-31T15:11:25;22.60;99.90
13721;DHT22;6932;51.438;5.470;2023-08-31T15:13:51;22.70;99.90
13721;DHT22;6932;51.438;5.470;2023-08-31T15:16:18;22.70;99.90
13721;DHT22;6932;51.438;5.470;2023-08-31T15:18:43;22.70;99.90
13721;DHT22;6932;51.438;5.470;2023-08-31T15:21:10;22.70;99.90
13721;DHT22;6932;51.438;5.470;2023-08-31T15:23:35;22.70;99.90
13721;DHT22;6932;51.438;5.470;2023-08-31T15:26:02;22.70;99.90
13721;DHT22;6932;51.438;5.470;2023-08-31T15:28:28;22.60;99.90
13721;DHT22;6932;51.438;5.470;2023-08-31T15:30:54;22.60;99.90
13721;DHT22;6932;51.438;5.470;2023-08-31T15:33:19;22.60;99.90
13721;DHT22;6932;51.438;5.470;2023-08-31T15:35:45;22.60;99.90
13721;DHT22;6932;51.438;5.470;2023-08-31T15:38:11;22.60;99.90
13721;DHT22;6932;51.438;5.470;2023-08-31T15:40:36;22.60;99.90
13721;DHT22;6932;51.438;5.470;2023-08-31T15:43:02;22.50;99.90
13721;DHT22;6932;51.438;5.470;2023-08-31T15:45:29;22.60;99.90
13721;DHT22;6932;51.438;5.470;2023-08-31T15:47:54;22.60;99.90
13721;DHT22;6932;51.438;5.470;2023-08-31T15:50:20;22.60;99.90
13721;DHT22;6932;51.438;5.470;2023-08-31T15:52:46;22.60;99.90
13721;DHT22;6932;51.438;5.470;2023-08-31T15:55:12;22.60;99.90
13721;DHT22;6932;51.438;5.470;2023-08-31T15:57:37;22.60;99.90
13721;DHT22;6932;51.438;5.470;2023-08-31T16:00:04;22.60;99.90
13721;DHT22;6932;51.438;5.470;2023-08-31T16:02:31;22.50;99.90